createdAt,value
2019-02-08T00:00:42.844Z,12.50
2019-02-08T00:03:12.254Z,12.63
2019-02-08T00:05:41.678Z,11.97
2019-02-08T00:08:11.040Z,12.33
2019-02-08T00:10:40.768Z,11.80
2019-02-08T00:13:10.161Z,11.00
2019-02-08T00:15:39.568Z,12.13
2019-02-08T00:18:08.972Z,11.10
2019-02-08T00:20:38.366Z,12.37
2019-02-08T00:23:07.780Z,11.20
2019-02-08T00:25:37.304Z,12.03
2019-02-08T00:28:08.207Z,12.50
2019-02-08T00:30:37.766Z,10.93
2019-02-08T00:33:07.294Z,12.47
2019-02-08T00:35:36.873Z,11.83
2019-02-08T00:38:09.674Z,11.27
2019-02-08T00:40:39.453Z,12.33
2019-02-08T00:43:08.862Z,11.87
2019-02-08T00:45:38.302Z,11.67
2019-02-08T00:48:09.345Z,12.07
2019-02-08T00:50:38.725Z,11.77
2019-02-08T00:53:08.952Z,11.90
2019-02-08T00:55:38.641Z,11.90
2019-02-08T00:58:08.062Z,12.73
2019-02-08T01:00:37.857Z,12.97
2019-02-08T01:03:07.377Z,12.83
2019-02-08T01:05:36.763Z,12.97
2019-02-08T01:08:06.266Z,13.63
2019-02-08T01:10:35.764Z,12.63
2019-02-08T01:13:05.487Z,12.00
2019-02-08T01:15:34.968Z,12.68
2019-02-08T01:18:04.794Z,12.63
2019-02-08T01:20:34.176Z,13.20
2019-02-08T01:23:04.213Z,12.43
2019-02-08T01:25:33.617Z,13.07
2019-02-08T01:28:03.005Z,12.40
2019-02-08T01:30:35.952Z,12.97
2019-02-08T01:33:05.835Z,13.43
2019-02-08T01:35:35.221Z,14.13
2019-02-08T01:38:05.004Z,13.30
2019-02-08T01:40:39.483Z,13.17
2019-02-08T01:43:09.939Z,12.90
2019-02-08T01:45:39.333Z,12.17
2019-02-08T01:48:09.289Z,12.37
2019-02-08T01:50:38.956Z,11.37
2019-02-08T01:53:08.824Z,13.23
2019-02-08T01:55:38.309Z,13.03
2019-02-08T01:58:07.693Z,13.43
2019-02-08T02:00:41.443Z,12.47
2019-02-08T02:03:11.727Z,12.53
2019-02-08T02:05:41.190Z,13.67
2019-02-08T02:08:11.341Z,13.87
2019-02-08T02:10:45.869Z,12.53
2019-02-08T02:13:15.398Z,12.33
2019-02-08T02:15:44.906Z,12.50
2019-02-08T02:18:15.010Z,12.57
2019-02-08T02:20:44.973Z,12.57
2019-02-08T02:23:16.823Z,11.77
2019-02-08T02:25:46.360Z,11.43
2019-02-08T02:28:15.832Z,12.40
2019-02-08T02:30:45.233Z,12.90
2019-02-08T02:33:15.629Z,11.47
2019-02-08T02:35:45.387Z,12.77
2019-02-08T02:38:14.776Z,12.53
2019-02-08T02:40:44.159Z,12.40
2019-02-08T02:43:13.533Z,12.63
2019-02-08T02:45:43.243Z,13.10
2019-02-08T02:48:14.131Z,11.47
2019-02-08T02:50:43.491Z,11.67
2019-02-08T02:53:13.023Z,12.23
2019-02-08T02:55:42.611Z,12.33
2019-02-08T02:58:11.986Z,11.07
2019-02-08T03:00:46.146Z,11.83
2019-02-08T03:03:16.140Z,12.17
2019-02-08T03:05:46.336Z,11.97
2019-02-08T03:08:17.335Z,11.90
2019-02-08T03:10:46.996Z,11.33
2019-02-08T03:13:16.422Z,12.57
2019-02-08T03:15:45.878Z,12.43
2019-02-08T03:18:15.248Z,11.70
2019-02-08T03:20:44.700Z,11.47
2019-02-08T03:23:14.680Z,11.73
2019-02-08T03:25:44.183Z,11.70
2019-02-08T03:28:13.648Z,12.77
2019-02-08T03:30:44.692Z,12.00
2019-02-08T03:33:14.083Z,11.23
2019-02-08T03:35:44.798Z,11.63
2019-02-08T03:38:14.182Z,9.87
2019-02-08T03:40:43.578Z,10.93
2019-02-08T03:43:12.961Z,11.10
2019-02-08T03:45:47.036Z,10.30
2019-02-08T03:48:16.426Z,10.23
2019-02-08T03:50:46.152Z,11.63
2019-02-08T03:53:15.592Z,10.80
2019-02-08T03:55:44.979Z,12.77
2019-02-08T03:58:14.421Z,11.17
2019-02-08T04:00:45.451Z,11.00
2019-02-08T04:03:14.898Z,10.70
2019-02-08T04:05:44.490Z,10.83
2019-02-08T04:08:14.262Z,9.87
2019-02-08T04:10:43.696Z,11.87
2019-02-08T04:13:13.092Z,10.20
2019-02-08T04:15:42.631Z,11.07
2019-02-08T04:18:12.019Z,10.23
2019-02-08T04:20:41.393Z,10.83
2019-02-08T04:23:10.789Z,11.47
2019-02-08T04:25:40.178Z,11.30
2019-02-08T04:28:09.560Z,10.93
2019-02-08T04:30:39.238Z,10.83
2019-02-08T04:33:09.402Z,11.53
2019-02-08T04:35:38.774Z,11.33
2019-02-08T04:38:09.343Z,10.93
2019-02-08T04:40:38.725Z,10.53
2019-02-08T04:43:08.109Z,10.03
2019-02-08T04:45:37.513Z,11.23
2019-02-08T04:48:06.961Z,10.80
2019-02-08T04:50:36.351Z,10.33
2019-02-08T04:53:06.482Z,10.70
2019-02-08T04:55:36.080Z,9.80
2019-02-08T04:58:05.491Z,10.83
2019-02-08T05:00:37.112Z,9.30
2019-02-08T05:03:07.119Z,9.37
2019-02-08T05:05:36.489Z,9.60
2019-02-08T05:08:06.220Z,10.13
2019-02-08T05:10:37.147Z,10.40
2019-02-08T05:13:06.685Z,10.80
2019-02-08T05:15:36.105Z,10.83
2019-02-08T05:18:05.554Z,13.57
2019-02-08T05:20:34.935Z,12.00
2019-02-08T05:23:04.343Z,11.37
2019-02-08T05:25:33.708Z,10.07
2019-02-08T05:28:03.081Z,9.87
2019-02-08T05:30:36.609Z,11.37
2019-02-08T05:33:06.895Z,10.23
2019-02-08T05:35:36.689Z,10.43
2019-02-08T05:38:06.492Z,9.33
2019-02-08T05:40:37.212Z,10.73
2019-02-08T05:43:07.079Z,9.47
2019-02-08T05:45:36.552Z,9.90
2019-02-08T05:48:06.171Z,9.30
2019-02-08T05:50:35.533Z,8.90
2019-02-08T05:53:05.737Z,10.10
2019-02-08T05:55:36.071Z,9.37
2019-02-08T05:58:07.435Z,7.93
2019-02-08T06:00:43.298Z,11.80
2019-02-08T06:03:12.687Z,9.47
2019-02-08T06:05:42.925Z,11.33
2019-02-08T06:08:12.790Z,9.87
2019-02-08T06:10:42.172Z,10.03
2019-02-08T06:13:12.423Z,9.73
2019-02-08T06:15:42.327Z,8.23
2019-02-08T06:18:12.193Z,8.33
2019-02-08T06:20:41.800Z,8.97
2019-02-08T06:23:12.024Z,9.20
2019-02-08T06:25:41.415Z,8.33
2019-02-08T06:28:10.785Z,8.93
2019-02-08T06:30:40.166Z,8.90
2019-02-08T06:33:09.548Z,8.53
2019-02-08T06:35:38.927Z,9.00
2019-02-08T06:38:08.528Z,8.27
2019-02-08T06:40:47.555Z,9.10
2019-02-08T06:43:17.274Z,8.27
2019-02-08T06:45:46.951Z,8.17
2019-02-08T06:48:16.320Z,9.30
2019-02-08T06:50:45.712Z,8.30
2019-02-08T06:53:15.248Z,9.10
2019-02-08T06:55:44.606Z,8.40
2019-02-08T06:58:16.929Z,8.50
2019-02-08T07:01:05.167Z,8.30
2019-02-08T07:03:38.645Z,8.30
2019-02-08T07:06:12.402Z,7.60
2019-02-08T07:09:01.728Z,8.47
2019-02-08T07:11:38.404Z,7.63
2019-02-08T07:14:26.064Z,9.07
2019-02-08T07:17:00.068Z,8.63
2019-02-08T07:19:37.411Z,8.77
2019-02-08T07:22:17.371Z,8.50
2019-02-08T07:24:54.907Z,8.70
2019-02-08T07:27:29.495Z,8.40
2019-02-08T07:30:00.682Z,8.13
2019-02-08T07:32:31.779Z,9.07
2019-02-08T07:35:02.865Z,8.10
2019-02-08T07:37:37.212Z,8.13
2019-02-08T07:40:34.579Z,8.08
2019-02-08T07:43:09.014Z,8.73
2019-02-08T07:45:45.055Z,10.50
2019-02-08T07:48:17.198Z,8.33
2019-02-08T07:51:00.194Z,8.63
2019-02-08T07:53:34.495Z,8.30
2019-02-08T07:56:08.737Z,7.43
2019-02-08T07:58:48.953Z,8.17
2019-02-08T08:01:23.020Z,7.73
2019-02-08T08:04:01.417Z,7.60
2019-02-08T08:06:36.538Z,7.87
2019-02-08T08:09:13.991Z,7.80
2019-02-08T08:11:45.017Z,6.93
2019-02-08T08:14:33.488Z,7.97
2019-02-08T08:17:13.495Z,6.90
2019-02-08T08:20:01.969Z,7.10
2019-02-08T08:22:33.319Z,6.43
2019-02-08T08:25:14.818Z,6.27
2019-02-08T08:27:45.953Z,6.53
2019-02-08T08:30:27.363Z,7.43
2019-02-08T08:33:05.348Z,6.67
2019-02-08T08:36:00.570Z,7.30
2019-02-08T08:39:12.399Z,6.07
2019-02-08T08:42:19.444Z,5.93
2019-02-08T08:45:12.278Z,6.10
2019-02-08T08:48:13.375Z,5.73
2019-02-08T08:51:21.953Z,5.40
2019-02-08T08:54:29.340Z,5.30
2019-02-08T08:57:36.614Z,6.03
2019-02-08T09:00:43.232Z,5.13
2019-02-08T09:03:42.044Z,5.47
2019-02-08T09:06:33.617Z,6.67
2019-02-08T09:09:40.902Z,5.03
2019-02-08T09:12:46.475Z,5.63
2019-02-08T09:15:42.920Z,4.70
2019-02-08T09:18:37.941Z,5.50
2019-02-08T09:21:48.056Z,4.33
2019-02-08T09:24:28.542Z,4.90
2019-02-08T09:27:20.639Z,4.43
2019-02-08T09:30:00.214Z,4.60
2019-02-08T09:33:00.495Z,4.17
2019-02-08T09:35:52.237Z,4.47
2019-02-08T09:38:31.955Z,4.90
2019-02-08T09:41:41.055Z,4.73
2019-02-08T09:44:34.233Z,4.47
2019-02-08T09:47:26.464Z,3.90
2019-02-08T09:50:14.895Z,4.33
2019-02-08T09:53:20.801Z,3.87
2019-02-08T09:56:29.481Z,3.73
2019-02-08T09:59:48.974Z,4.07
2019-02-08T10:02:31.089Z,3.67
2019-02-08T10:05:32.063Z,3.90
2019-02-08T10:08:35.076Z,3.83
2019-02-08T10:11:25.908Z,3.77
2019-02-08T10:14:33.430Z,3.97
2019-02-08T10:17:30.403Z,3.95
2019-02-08T10:20:45.277Z,3.90
2019-02-08T10:23:44.377Z,3.97
2019-02-08T10:27:09.441Z,3.93
2019-02-08T10:30:23.171Z,2.83
2019-02-08T10:33:45.445Z,3.83
2019-02-08T10:36:42.196Z,3.90
2019-02-08T10:39:58.622Z,4.33
2019-02-08T10:43:12.054Z,4.17
2019-02-08T10:46:17.786Z,3.80
2019-02-08T10:48:53.096Z,4.17
2019-02-08T10:52:06.291Z,3.53
2019-02-08T10:55:02.850Z,5.17
2019-02-08T10:58:25.055Z,4.00
2019-02-08T11:01:21.616Z,2.83
2019-02-08T11:04:42.409Z,3.93
2019-02-08T11:07:16.418Z,3.83
2019-02-08T11:10:24.440Z,4.30
2019-02-08T11:13:27.573Z,3.47
2019-02-08T11:16:53.218Z,3.70
2019-02-08T11:19:24.010Z,3.70
2019-02-08T11:21:53.607Z,3.90
2019-02-08T11:24:24.206Z,4.03
2019-02-08T11:26:54.112Z,3.85
2019-02-08T11:29:23.736Z,3.80
2019-02-08T11:31:53.123Z,3.50
2019-02-08T11:34:22.940Z,4.13
2019-02-08T11:36:52.401Z,3.30
2019-02-08T11:39:21.853Z,3.90
2019-02-08T11:41:51.568Z,3.70
2019-02-08T11:44:21.654Z,4.03
2019-02-08T11:46:51.173Z,3.43
2019-02-08T11:49:21.767Z,4.23
2019-02-08T11:51:51.212Z,3.43
2019-02-08T11:54:20.595Z,3.30
2019-02-08T11:56:50.493Z,3.23
2019-02-08T11:59:19.882Z,3.30
2019-02-08T12:01:49.432Z,2.93
2019-02-08T12:04:19.152Z,3.63
2019-02-08T12:06:48.529Z,3.23
2019-02-08T12:09:18.446Z,3.37
2019-02-08T12:11:47.923Z,3.23
2019-02-08T12:14:17.300Z,3.17
2019-02-08T12:16:46.757Z,3.87
2019-02-08T12:19:16.460Z,4.10
2019-02-08T12:21:45.855Z,4.43
2019-02-08T12:24:15.242Z,3.10
2019-02-08T12:26:44.633Z,3.30
2019-02-08T12:29:14.087Z,4.10
2019-02-08T12:31:43.463Z,3.57
2019-02-08T12:34:12.893Z,3.77
2019-02-08T12:36:42.346Z,3.70
2019-02-08T12:39:11.922Z,3.10
2019-02-08T12:41:41.720Z,3.70
2019-02-08T12:44:11.490Z,3.53
2019-02-08T12:46:40.958Z,3.70
2019-02-08T12:49:10.351Z,3.23
2019-02-08T12:51:40.885Z,3.37
2019-02-08T12:54:10.277Z,3.60
2019-02-08T12:56:45.430Z,2.97
2019-02-08T12:59:10.839Z,2.93
2019-02-08T13:01:40.224Z,3.77
2019-02-08T13:04:09.630Z,3.60
2019-02-08T13:06:39.009Z,3.50
2019-02-08T13:09:10.767Z,3.43
2019-02-08T13:11:40.443Z,3.00
2019-02-08T13:14:09.891Z,3.40
2019-02-08T13:16:39.278Z,3.33
2019-02-08T13:19:08.690Z,3.10
2019-02-08T13:21:38.093Z,3.00
2019-02-08T13:24:07.542Z,3.23
2019-02-08T13:26:36.959Z,3.80
2019-02-08T13:29:06.502Z,3.17
2019-02-08T13:31:35.882Z,3.50
2019-02-08T13:34:05.745Z,2.90
2019-02-08T13:36:35.121Z,2.70
2019-02-08T13:39:07.350Z,3.03
2019-02-08T13:41:36.753Z,3.60
2019-02-08T13:44:06.378Z,3.40
2019-02-08T13:46:35.765Z,3.30
2019-02-08T13:49:05.506Z,3.03
2019-02-08T13:51:34.900Z,3.47
2019-02-08T13:54:06.637Z,2.90
2019-02-08T13:56:36.028Z,3.20
2019-02-08T13:59:05.967Z,3.00
2019-02-08T14:01:35.333Z,2.87
2019-02-08T14:04:04.965Z,3.10
2019-02-08T14:06:34.344Z,6.20
2019-02-08T14:09:04.588Z,3.17
2019-02-08T14:11:34.274Z,2.73
2019-02-08T14:14:03.656Z,2.70
2019-02-08T14:16:33.049Z,3.17
2019-02-08T14:19:02.447Z,2.37
2019-02-08T14:21:31.840Z,2.97
2019-02-08T14:24:01.225Z,2.83
2019-02-08T14:26:30.633Z,3.03
2019-02-08T14:29:00.005Z,3.30
2019-02-08T14:31:29.451Z,2.97
2019-02-08T14:33:59.268Z,3.17
2019-02-08T14:36:28.649Z,2.87
2019-02-08T14:38:58.033Z,2.70
2019-02-08T14:41:27.738Z,2.97
2019-02-08T14:43:57.125Z,2.93
2019-02-08T14:46:26.517Z,2.53
2019-02-08T14:48:57.582Z,2.93
2019-02-08T14:51:27.034Z,2.80
2019-02-08T14:53:56.775Z,3.13
2019-02-08T14:56:27.636Z,3.30
2019-02-08T14:58:57.017Z,3.63
2019-02-08T15:01:26.399Z,2.70
2019-02-08T15:03:55.792Z,3.00
2019-02-08T15:06:25.177Z,2.67
2019-02-08T15:08:54.636Z,3.10
2019-02-08T15:11:24.038Z,3.07
2019-02-08T15:13:53.418Z,2.83
2019-02-08T15:16:22.807Z,2.20
2019-02-08T15:18:52.518Z,2.80
2019-02-08T15:21:21.907Z,3.13
2019-02-08T15:23:51.278Z,2.53
2019-02-08T15:26:20.676Z,2.90
2019-02-08T15:28:50.055Z,2.30
2019-02-08T15:31:19.438Z,2.40
2019-02-08T15:33:48.841Z,2.23
2019-02-08T15:36:18.216Z,3.53
2019-02-08T15:38:47.606Z,2.40
2019-02-08T15:41:17.370Z,2.42
2019-02-08T15:43:46.820Z,2.57
2019-02-08T15:46:16.209Z,2.23
2019-02-08T15:48:45.620Z,2.60
2019-02-08T15:51:15.003Z,2.70
2019-02-08T15:53:44.386Z,3.03
2019-02-08T15:56:14.669Z,2.57
2019-02-08T15:58:45.087Z,2.23
2019-02-08T16:01:14.719Z,3.33
2019-02-08T16:03:44.530Z,2.40
2019-02-08T16:06:13.926Z,2.47
2019-02-08T16:08:43.300Z,2.23
2019-02-08T16:11:12.708Z,2.70
2019-02-08T16:13:42.079Z,2.37
2019-02-08T16:16:12.369Z,2.70
2019-02-08T16:18:41.771Z,2.17
2019-02-08T16:21:11.390Z,2.70
2019-02-08T16:23:40.781Z,2.80
2019-02-08T16:26:10.199Z,3.10
2019-02-08T16:28:39.577Z,2.87
2019-02-08T16:31:09.104Z,3.30
2019-02-08T16:33:38.516Z,3.47
2019-02-08T16:36:08.044Z,3.53
2019-02-08T16:38:37.426Z,3.43
2019-02-08T16:41:06.972Z,3.40
2019-02-08T16:43:36.361Z,3.33
2019-02-08T16:46:06.098Z,3.58
2019-02-08T16:48:35.843Z,3.37
2019-02-08T16:51:05.390Z,3.00
2019-02-08T16:53:34.770Z,3.10
2019-02-08T16:56:04.799Z,3.30
2019-02-08T16:58:34.174Z,3.30
2019-02-08T17:01:05.405Z,3.07
2019-02-08T17:03:34.813Z,2.40
2019-02-08T17:06:04.743Z,2.70
2019-02-08T17:08:34.128Z,2.77
2019-02-08T17:11:03.558Z,4.15
2019-02-08T17:13:33.001Z,3.70
2019-02-08T17:16:02.754Z,3.97
2019-02-08T17:18:32.136Z,2.87
2019-02-08T17:21:01.532Z,2.60
2019-02-08T17:23:30.911Z,3.33
2019-02-08T17:26:00.313Z,2.73
2019-02-08T17:28:29.692Z,2.70
2019-02-08T17:30:59.075Z,2.70
2019-02-08T17:33:28.792Z,2.63
2019-02-08T17:35:58.189Z,3.30
2019-02-08T17:38:27.589Z,2.20
2019-02-08T17:40:57.067Z,3.07
2019-02-08T17:43:26.452Z,2.50
2019-02-08T17:45:55.832Z,3.00
2019-02-08T17:48:25.236Z,2.50
2019-02-08T17:50:54.688Z,2.23
2019-02-08T17:53:24.072Z,2.30
2019-02-08T17:55:53.507Z,2.23
2019-02-08T17:58:22.896Z,2.77
2019-02-08T18:00:56.570Z,2.12
2019-02-08T18:03:26.280Z,2.90
2019-02-08T18:05:56.009Z,2.50
2019-02-08T18:08:25.702Z,2.80
2019-02-08T18:10:55.172Z,2.83
2019-02-08T18:13:24.572Z,3.10
2019-02-08T18:15:53.958Z,2.33
2019-02-08T18:18:23.354Z,3.43
2019-02-08T18:20:59.883Z,3.70
2019-02-08T18:23:29.299Z,3.03
2019-02-08T18:25:58.703Z,2.80
2019-02-08T18:28:28.100Z,2.87
2019-02-08T18:30:58.980Z,3.00
2019-02-08T18:33:28.397Z,2.60
2019-02-08T18:35:57.801Z,2.87
2019-02-08T18:38:27.288Z,3.33
2019-02-08T18:40:56.733Z,3.33
2019-02-08T18:43:26.137Z,3.47
2019-02-08T18:45:55.534Z,3.20
2019-02-08T18:48:24.921Z,3.40
2019-02-08T18:50:55.647Z,10.10
2019-02-08T18:53:25.079Z,3.50
2019-02-08T18:55:54.451Z,2.57
2019-02-08T18:58:23.841Z,3.30
2019-02-08T19:00:55.119Z,2.60
2019-02-08T19:03:25.269Z,2.60
2019-02-08T19:05:55.186Z,3.62
2019-02-08T19:08:24.587Z,2.87
2019-02-08T19:10:54.156Z,3.40
2019-02-08T19:13:24.022Z,3.30
2019-02-08T19:15:53.458Z,3.00
2019-02-08T19:18:22.829Z,2.43
2019-02-08T19:20:52.207Z,3.27
2019-02-08T19:23:21.602Z,2.87
2019-02-08T19:25:50.991Z,3.30
2019-02-08T19:28:26.347Z,2.80
2019-02-08T19:30:51.493Z,3.30
2019-02-08T19:33:20.917Z,3.67
2019-02-08T19:35:50.510Z,4.23
2019-02-08T19:38:19.930Z,3.40
2019-02-08T19:40:49.590Z,3.53
2019-02-08T19:43:19.023Z,3.37
2019-02-08T19:45:48.438Z,3.40
2019-02-08T19:48:17.821Z,3.50
2019-02-08T19:50:48.639Z,3.70
2019-02-08T19:53:18.050Z,3.27
2019-02-08T19:55:47.503Z,4.13
2019-02-08T19:58:16.887Z,3.73
2019-02-08T20:00:46.515Z,3.37
2019-02-08T20:03:16.007Z,3.47
2019-02-08T20:05:45.384Z,5.07
2019-02-08T20:08:15.555Z,3.30
2019-02-08T20:10:51.442Z,3.70
2019-02-08T20:13:20.822Z,3.30
2019-02-08T20:15:50.273Z,3.80
2019-02-08T20:18:19.726Z,3.13
2019-02-08T20:20:49.121Z,3.47
2019-02-08T20:23:18.525Z,4.27
2019-02-08T20:25:47.976Z,4.03
2019-02-08T20:28:17.365Z,3.83
2019-02-08T20:30:46.920Z,3.83
2019-02-08T20:33:16.314Z,3.90
2019-02-08T20:35:45.689Z,4.17
2019-02-08T20:38:15.532Z,4.17
2019-02-08T20:40:48.726Z,3.40
2019-02-08T20:43:18.123Z,3.73
2019-02-08T20:45:47.517Z,3.53
2019-02-08T20:48:22.466Z,4.23
2019-02-08T20:50:52.018Z,4.17
2019-02-08T20:53:21.966Z,4.27
2019-02-08T20:55:52.416Z,3.80
2019-02-08T20:58:22.002Z,3.90
2019-02-08T21:00:53.008Z,4.10
2019-02-08T21:03:23.769Z,4.10
2019-02-08T21:05:53.151Z,3.37
2019-02-08T21:08:22.956Z,3.87
2019-02-08T21:10:53.110Z,3.80
2019-02-08T21:13:22.487Z,4.50
2019-02-08T21:15:52.234Z,3.90
2019-02-08T21:18:21.614Z,3.77
2019-02-08T21:20:51.002Z,4.17
2019-02-08T21:23:20.399Z,3.67
2019-02-08T21:25:52.241Z,3.70
2019-02-08T21:28:20.901Z,3.67
2019-02-08T21:30:50.403Z,4.67
2019-02-08T21:33:19.779Z,3.67
2019-02-08T21:35:49.680Z,4.17
2019-02-08T21:38:19.129Z,3.73
2019-02-08T21:40:48.598Z,4.13
2019-02-08T21:43:18.393Z,4.07
2019-02-08T21:45:47.796Z,3.97
2019-02-08T21:48:17.201Z,4.17
2019-02-08T21:50:46.610Z,3.77
2019-02-08T21:53:16.023Z,3.63
2019-02-08T21:55:45.411Z,3.43
2019-02-08T21:58:14.806Z,4.50
2019-02-08T22:00:45.557Z,3.47
2019-02-08T22:03:15.005Z,4.40
2019-02-08T22:05:52.015Z,3.30
2019-02-08T22:08:21.395Z,3.53
2019-02-08T22:10:50.774Z,3.67
2019-02-08T22:13:20.650Z,4.37
2019-02-08T22:15:50.920Z,3.90
2019-02-08T22:18:20.296Z,4.57
2019-02-08T22:20:49.680Z,4.40
2019-02-08T22:23:19.081Z,4.80
2019-02-08T22:25:48.467Z,4.70
2019-02-08T22:28:17.897Z,5.47
2019-02-08T22:30:47.298Z,4.77
2019-02-08T22:33:16.701Z,4.27
2019-02-08T22:35:46.095Z,4.93
2019-02-08T22:38:15.507Z,4.63
2019-02-08T22:40:44.885Z,4.17
2019-02-08T22:43:14.256Z,5.97
2019-02-08T22:45:44.241Z,4.50
2019-02-08T22:48:13.578Z,5.07
2019-02-08T22:50:42.974Z,4.47
2019-02-08T22:53:12.529Z,4.57
2019-02-08T22:55:42.016Z,4.70
2019-02-08T22:58:11.401Z,5.30
2019-02-08T23:00:57.985Z,4.53
2019-02-08T23:03:27.355Z,4.77
2019-02-08T23:05:56.733Z,5.03
2019-02-08T23:08:26.216Z,5.17
2019-02-08T23:10:56.536Z,5.33
2019-02-08T23:13:26.083Z,5.07
2019-02-08T23:15:56.730Z,4.60
2019-02-08T23:18:26.175Z,4.23
2019-02-08T23:20:55.551Z,4.10
2019-02-08T23:23:25.696Z,5.17
2019-02-08T23:25:55.065Z,4.67
2019-02-08T23:28:24.447Z,5.10
2019-02-08T23:30:53.855Z,4.40
2019-02-08T23:33:23.220Z,4.50
2019-02-08T23:35:52.600Z,4.70
2019-02-08T23:38:22.018Z,5.33
2019-02-08T23:40:51.377Z,4.53
2019-02-08T23:43:20.746Z,4.23
2019-02-08T23:45:50.192Z,4.30
2019-02-08T23:48:19.637Z,3.80
2019-02-08T23:50:49.011Z,4.53
2019-02-08T23:53:18.389Z,5.07
2019-02-08T23:55:47.775Z,4.40
2019-02-08T23:58:17.152Z,4.87
